sensor_id;sensor_type;location;lat;lon;timestamp;temperature;humidity
63047;DHT22;62025;39.238;9.126;2023-09-08T00:02:16;26.00;50.90
63047;DHT22;62025;39.238;9.126;2023-09-08T00:04:42;26.00;50.40
63047;DHT22;62025;39.238;9.126;2023-09-08T00:07:08;26.00;50.00
63047;DHT22;62025;39.238;9.126;2023-09-08T00:09:34;25.90;49.40
63047;DHT22;62025;39.238;9.126;2023-09-08T00:12:00;26.00;49.20
63047;DHT22;62025;39.238;9.126;2023-09-08T00:14:26;25.90;49.10
63047;DHT22;62025;39.238;9.126;2023-09-08T00:16:53;25.90;48.70
63047;DHT22;62025;39.238;9.126;2023-09-08T00:19:22;25.90;48.30
63047;DHT22;62025;39.238;9.126;2023-09-08T00:21:48;25.90;47.90
63047;DHT22;62025;39.238;9.126;2023-09-08T00:24:15;25.90;47.60
63047;DHT22;62025;39.238;9.126;2023-09-08T00:26:41;25.90;47.50
63047;DHT22;62025;39.238;9.126;2023-09-08T00:29:07;25.90;46.90
63047;DHT22;62025;39.238;9.126;2023-09-08T00:31:33;25.90;46.50
63047;DHT22;62025;39.238;9.126;2023-09-08T00:33:59;25.90;46.30
63047;DHT22;62025;39.238;9.126;2023-09-08T00:36:25;25.90;46.00
63047;DHT22;62025;39.238;9.126;2023-09-08T00:38:51;25.90;45.60
63047;DHT22;62025;39.238;9.126;2023-09-08T00:41:17;25.90;45.80
63047;DHT22;62025;39.238;9.126;2023-09-08T00:43:43;25.90;46.00
63047;DHT22;62025;39.238;9.126;2023-09-08T00:46:09;25.90;45.60
63047;DHT22;62025;39.238;9.126;2023-09-08T00:48:36;25.90;45.60
63047;DHT22;62025;39.238;9.126;2023-09-08T00:51:03;25.90;45.50
63047;DHT22;62025;39.238;9.126;2023-09-08T00:53:31;25.90;45.50
63047;DHT22;62025;39.238;9.126;2023-09-08T00:55:58;25.90;45.60
63047;DHT22;62025;39.238;9.126;2023-09-08T00:58:25;25.90;45.40
63047;DHT22;62025;39.238;9.126;2023-09-08T01:00:51;25.90;45.30
63047;DHT22;62025;39.238;9.126;2023-09-08T01:03:17;25.90;45.30
63047;DHT22;62025;39.238;9.126;2023-09-08T01:05:44;25.90;45.10
63047;DHT22;62025;39.238;9.126;2023-09-08T01:08:13;25.80;45.30
63047;DHT22;62025;39.238;9.126;2023-09-08T01:10:41;25.90;45.20
63047;DHT22;62025;39.238;9.126;2023-09-08T01:13:07;25.90;45.30
63047;DHT22;62025;39.238;9.126;2023-09-08T01:15:33;25.80;45.50
63047;DHT22;62025;39.238;9.126;2023-09-08T01:18:00;25.90;45.30
63047;DHT22;62025;39.238;9.126;2023-09-08T01:20:30;25.90;45.40
63047;DHT22;62025;39.238;9.126;2023-09-08T01:23:32;25.90;45.30
63047;DHT22;62025;39.238;9.126;2023-09-08T01:26:04;25.80;45.40
63047;DHT22;62025;39.238;9.126;2023-09-08T01:28:37;25.80;45.40
63047;DHT22;62025;39.238;9.126;2023-09-08T01:31:05;25.80;45.30
63047;DHT22;62025;39.238;9.126;2023-09-08T01:33:32;25.80;45.50
63047;DHT22;62025;39.238;9.126;2023-09-08T01:35:58;25.80;45.80
63047;DHT22;62025;39.238;9.126;2023-09-08T01:38:25;25.80;45.70
63047;DHT22;62025;39.238;9.126;2023-09-08T01:40:52;25.80;45.70
63047;DHT22;62025;39.238;9.126;2023-09-08T01:43:18;25.70;45.50
63047;DHT22;62025;39.238;9.126;2023-09-08T01:45:44;25.70;45.50
63047;DHT22;62025;39.238;9.126;2023-09-08T01:48:10;25.70;45.50
63047;DHT22;62025;39.238;9.126;2023-09-08T01:50:36;25.70;45.60
63047;DHT22;62025;39.238;9.126;2023-09-08T01:53:02;25.60;45.50
63047;DHT22;62025;39.238;9.126;2023-09-08T01:55:28;25.60;45.50
63047;DHT22;62025;39.238;9.126;2023-09-08T01:57:56;25.60;45.50
63047;DHT22;62025;39.238;9.126;2023-09-08T02:00:22;25.50;45.40
63047;DHT22;62025;39.238;9.126;2023-09-08T02:02:48;25.50;45.40
63047;DHT22;62025;39.238;9.126;2023-09-08T02:05:14;25.40;45.60
63047;DHT22;62025;39.238;9.126;2023-09-08T02:07:41;25.40;45.60
63047;DHT22;62025;39.238;9.126;2023-09-08T02:10:07;25.40;45.90
63047;DHT22;62025;39.238;9.126;2023-09-08T02:12:34;25.30;46.00
63047;DHT22;62025;39.238;9.126;2023-09-08T02:15:00;25.40;45.90
63047;DHT22;62025;39.238;9.126;2023-09-08T02:17:27;25.40;46.00
63047;DHT22;62025;39.238;9.126;2023-09-08T02:19:53;25.30;46.10
63047;DHT22;62025;39.238;9.126;2023-09-08T02:22:18;25.20;46.30
63047;DHT22;62025;39.238;9.126;2023-09-08T02:24:45;25.20;46.40
63047;DHT22;62025;39.238;9.126;2023-09-08T02:27:11;25.20;46.50
63047;DHT22;62025;39.238;9.126;2023-09-08T02:29:37;25.20;46.60
63047;DHT22;62025;39.238;9.126;2023-09-08T02:32:03;25.20;46.50
63047;DHT22;62025;39.238;9.126;2023-09-08T02:34:29;25.30;46.50
63047;DHT22;62025;39.238;9.126;2023-09-08T02:36:55;25.30;46.50
63047;DHT22;62025;39.238;9.126;2023-09-08T02:39:24;25.20;46.50
63047;DHT22;62025;39.238;9.126;2023-09-08T02:41:52;25.30;46.50
63047;DHT22;62025;39.238;9.126;2023-09-08T02:44:20;25.20;46.50
63047;DHT22;62025;39.238;9.126;2023-09-08T02:46:48;25.10;46.70
63047;DHT22;62025;39.238;9.126;2023-09-08T02:49:14;25.10;46.80
63047;DHT22;62025;39.238;9.126;2023-09-08T02:51:40;25.20;46.80
63047;DHT22;62025;39.238;9.126;2023-09-08T02:54:06;25.20;46.80
63047;DHT22;62025;39.238;9.126;2023-09-08T02:56:32;25.20;46.80
63047;DHT22;62025;39.238;9.126;2023-09-08T02:58:58;25.10;47.00
63047;DHT22;62025;39.238;9.126;2023-09-08T03:01:24;25.20;46.90
63047;DHT22;62025;39.238;9.126;2023-09-08T03:03:50;25.20;47.00
63047;DHT22;62025;39.238;9.126;2023-09-08T03:06:19;25.10;47.10
63047;DHT22;62025;39.238;9.126;2023-09-08T03:08:46;25.10;47.20
63047;DHT22;62025;39.238;9.126;2023-09-08T03:11:12;25.10;47.20
63047;DHT22;62025;39.238;9.126;2023-09-08T03:13:39;25.10;47.10
63047;DHT22;62025;39.238;9.126;2023-09-08T03:16:06;25.10;47.20
63047;DHT22;62025;39.238;9.126;2023-09-08T03:18:34;25.10;47.20
63047;DHT22;62025;39.238;9.126;2023-09-08T03:21:02;25.00;47.20
63047;DHT22;62025;39.238;9.126;2023-09-08T03:23:39;25.00;47.20
63047;DHT22;62025;39.238;9.126;2023-09-08T03:26:06;25.00;47.30
63047;DHT22;62025;39.238;9.126;2023-09-08T03:28:33;25.00;47.20
63047;DHT22;62025;39.238;9.126;2023-09-08T03:31:03;24.90;47.30
63047;DHT22;62025;39.238;9.126;2023-09-08T03:33:32;24.90;47.30
63047;DHT22;62025;39.238;9.126;2023-09-08T03:35:59;24.90;47.40
63047;DHT22;62025;39.238;9.126;2023-09-08T03:38:25;24.90;47.40
63047;DHT22;62025;39.238;9.126;2023-09-08T03:40:52;24.90;47.40
63047;DHT22;62025;39.238;9.126;2023-09-08T03:43:18;24.90;47.40
63047;DHT22;62025;39.238;9.126;2023-09-08T03:45:44;24.90;47.40
63047;DHT22;62025;39.238;9.126;2023-09-08T03:48:10;24.90;47.50
63047;DHT22;62025;39.238;9.126;2023-09-08T03:50:36;24.80;47.60
63047;DHT22;62025;39.238;9.126;2023-09-08T03:53:02;24.70;48.00
63047;DHT22;62025;39.238;9.126;2023-09-08T03:55:29;24.70;47.90
63047;DHT22;62025;39.238;9.126;2023-09-08T03:57:55;24.80;47.90
63047;DHT22;62025;39.238;9.126;2023-09-08T04:00:20;24.80;47.80
63047;DHT22;62025;39.238;9.126;2023-09-08T04:02:50;24.80;47.80
63047;DHT22;62025;39.238;9.126;2023-09-08T04:05:17;24.80;47.90
63047;DHT22;62025;39.238;9.126;2023-09-08T04:07:44;24.70;47.90
63047;DHT22;62025;39.238;9.126;2023-09-08T04:10:11;24.70;47.90
63047;DHT22;62025;39.238;9.126;2023-09-08T04:12:39;24.70;48.00
63047;DHT22;62025;39.238;9.126;2023-09-08T04:15:05;24.70;48.10
63047;DHT22;62025;39.238;9.126;2023-09-08T04:17:32;24.70;48.10
63047;DHT22;62025;39.238;9.126;2023-09-08T04:19:59;24.70;48.20
63047;DHT22;62025;39.238;9.126;2023-09-08T04:22:25;24.60;48.30
63047;DHT22;62025;39.238;9.126;2023-09-08T04:24:51;24.60;48.50
63047;DHT22;62025;39.238;9.126;2023-09-08T04:27:18;24.50;48.60
63047;DHT22;62025;39.238;9.126;2023-09-08T04:29:44;24.50;48.70
63047;DHT22;62025;39.238;9.126;2023-09-08T04:32:11;24.60;48.70
63047;DHT22;62025;39.238;9.126;2023-09-08T04:34:41;24.50;48.80
63047;DHT22;62025;39.238;9.126;2023-09-08T04:37:08;24.50;48.70
63047;DHT22;62025;39.238;9.126;2023-09-08T04:39:35;24.60;48.60
63047;DHT22;62025;39.238;9.126;2023-09-08T04:42:03;24.50;48.70
63047;DHT22;62025;39.238;9.126;2023-09-08T04:44:29;24.40;48.80
63047;DHT22;62025;39.238;9.126;2023-09-08T04:46:55;24.40;49.00
63047;DHT22;62025;39.238;9.126;2023-09-08T04:49:21;24.40;49.30
63047;DHT22;62025;39.238;9.126;2023-09-08T04:51:48;24.40;49.60
63047;DHT22;62025;39.238;9.126;2023-09-08T04:54:17;24.40;49.90
63047;DHT22;62025;39.238;9.126;2023-09-08T04:56:43;24.30;50.30
63047;DHT22;62025;39.238;9.126;2023-09-08T04:59:09;24.40;50.10
63047;DHT22;62025;39.238;9.126;2023-09-08T05:01:35;24.40;50.30
63047;DHT22;62025;39.238;9.126;2023-09-08T05:04:04;24.40;50.50
63047;DHT22;62025;39.238;9.126;2023-09-08T05:06:30;24.30;51.10
63047;DHT22;62025;39.238;9.126;2023-09-08T05:08:58;24.40;51.40
63047;DHT22;62025;39.238;9.126;2023-09-08T05:11:26;24.40;51.70
63047;DHT22;62025;39.238;9.126;2023-09-08T05:13:52;24.40;51.90
63047;DHT22;62025;39.238;9.126;2023-09-08T05:16:19;24.30;52.20
63047;DHT22;62025;39.238;9.126;2023-09-08T05:18:52;24.20;52.40
63047;DHT22;62025;39.238;9.126;2023-09-08T05:21:18;24.30;52.30
63047;DHT22;62025;39.238;9.126;2023-09-08T05:23:45;24.40;52.00
63047;DHT22;62025;39.238;9.126;2023-09-08T05:26:11;24.30;51.80
63047;DHT22;62025;39.238;9.126;2023-09-08T05:28:37;24.40;51.50
63047;DHT22;62025;39.238;9.126;2023-09-08T05:31:03;24.40;51.20
63047;DHT22;62025;39.238;9.126;2023-09-08T05:33:30;24.40;51.00
63047;DHT22;62025;39.238;9.126;2023-09-08T05:35:56;24.40;51.00
63047;DHT22;62025;39.238;9.126;2023-09-08T05:38:23;24.40;51.00
63047;DHT22;62025;39.238;9.126;2023-09-08T05:40:51;24.40;51.00
63047;DHT22;62025;39.238;9.126;2023-09-08T05:43:17;24.40;51.00
63047;DHT22;62025;39.238;9.126;2023-09-08T05:45:43;24.40;51.20
63047;DHT22;62025;39.238;9.126;2023-09-08T05:48:09;24.40;51.20
63047;DHT22;62025;39.238;9.126;2023-09-08T05:50:36;24.40;51.20
63047;DHT22;62025;39.238;9.126;2023-09-08T05:53:02;24.40;51.20
63047;DHT22;62025;39.238;9.126;2023-09-08T05:55:28;24.50;50.90
63047;DHT22;62025;39.238;9.126;2023-09-08T05:57:54;24.60;50.60
63047;DHT22;62025;39.238;9.126;2023-09-08T06:00:20;24.70;50.20
63047;DHT22;62025;39.238;9.126;2023-09-08T06:02:49;24.80;49.80
63047;DHT22;62025;39.238;9.126;2023-09-08T06:05:17;24.80;49.80
63047;DHT22;62025;39.238;9.126;2023-09-08T06:07:43;24.90;49.50
63047;DHT22;62025;39.238;9.126;2023-09-08T06:10:10;24.90;49.30
63047;DHT22;62025;39.238;9.126;2023-09-08T06:12:36;25.00;48.90
63047;DHT22;62025;39.238;9.126;2023-09-08T06:15:03;25.20;48.70
63047;DHT22;62025;39.238;9.126;2023-09-08T06:17:30;25.20;48.50
63047;DHT22;62025;39.238;9.126;2023-09-08T06:19:56;25.30;48.30
63047;DHT22;62025;39.238;9.126;2023-09-08T06:22:22;25.40;48.20
63047;DHT22;62025;39.238;9.126;2023-09-08T06:24:49;25.50;48.00
63047;DHT22;62025;39.238;9.126;2023-09-08T06:27:15;25.60;47.40
63047;DHT22;62025;39.238;9.126;2023-09-08T06:29:42;25.70;47.10
63047;DHT22;62025;39.238;9.126;2023-09-08T06:32:10;25.90;47.00
63047;DHT22;62025;39.238;9.126;2023-09-08T06:34:38;25.90;46.50
63047;DHT22;62025;39.238;9.126;2023-09-08T06:37:05;26.00;46.40
63047;DHT22;62025;39.238;9.126;2023-09-08T06:39:32;26.10;46.20
63047;DHT22;62025;39.238;9.126;2023-09-08T06:41:59;26.20;45.90
63047;DHT22;62025;39.238;9.126;2023-09-08T06:44:25;26.30;45.80
63047;DHT22;62025;39.238;9.126;2023-09-08T06:46:51;26.40;45.50
63047;DHT22;62025;39.238;9.126;2023-09-08T06:49:18;26.40;45.40
63047;DHT22;62025;39.238;9.126;2023-09-08T06:51:45;26.60;45.10
63047;DHT22;62025;39.238;9.126;2023-09-08T06:54:13;26.70;45.00
63047;DHT22;62025;39.238;9.126;2023-09-08T06:56:42;26.90;44.60
63047;DHT22;62025;39.238;9.126;2023-09-08T06:59:08;27.10;44.30
63047;DHT22;62025;39.238;9.126;2023-09-08T07:01:35;27.20;44.30
63047;DHT22;62025;39.238;9.126;2023-09-08T07:04:01;27.40;44.10
63047;DHT22;62025;39.238;9.126;2023-09-08T07:06:28;27.40;44.00
63047;DHT22;62025;39.238;9.126;2023-09-08T07:08:55;27.60;43.80
63047;DHT22;62025;39.238;9.126;2023-09-08T07:11:21;27.70;43.60
63047;DHT22;62025;39.238;9.126;2023-09-08T07:13:48;27.90;43.50
63047;DHT22;62025;39.238;9.126;2023-09-08T07:16:14;28.00;43.40
63047;DHT22;62025;39.238;9.126;2023-09-08T07:18:40;28.10;43.20
63047;DHT22;62025;39.238;9.126;2023-09-08T07:21:07;28.30;43.30
63047;DHT22;62025;39.238;9.126;2023-09-08T07:23:34;28.50;43.20
63047;DHT22;62025;39.238;9.126;2023-09-08T07:26:02;28.60;43.10
63047;DHT22;62025;39.238;9.126;2023-09-08T07:28:30;28.70;43.10
63047;DHT22;62025;39.238;9.126;2023-09-08T07:31:04;28.80;43.00
63047;DHT22;62025;39.238;9.126;2023-09-08T07:33:32;29.00;42.80
63047;DHT22;62025;39.238;9.126;2023-09-08T07:36:05;29.10;42.90
63047;DHT22;62025;39.238;9.126;2023-09-08T07:38:31;29.30;42.80
63047;DHT22;62025;39.238;9.126;2023-09-08T07:40:59;29.40;42.50
63047;DHT22;62025;39.238;9.126;2023-09-08T07:43:28;29.40;42.20
63047;DHT22;62025;39.238;9.126;2023-09-08T07:45:54;29.60;42.00
63047;DHT22;62025;39.238;9.126;2023-09-08T07:48:20;29.60;41.60
63047;DHT22;62025;39.238;9.126;2023-09-08T07:50:46;29.80;41.20
63047;DHT22;62025;39.238;9.126;2023-09-08T07:53:12;29.90;40.70
63047;DHT22;62025;39.238;9.126;2023-09-08T07:55:38;30.00;40.60
63047;DHT22;62025;39.238;9.126;2023-09-08T07:58:04;30.10;40.20
63047;DHT22;62025;39.238;9.126;2023-09-08T08:00:30;30.20;40.20
63047;DHT22;62025;39.238;9.126;2023-09-08T08:02:57;30.20;40.00
63047;DHT22;62025;39.238;9.126;2023-09-08T08:05:24;30.30;39.60
63047;DHT22;62025;39.238;9.126;2023-09-08T08:07:51;30.40;39.30
63047;DHT22;62025;39.238;9.126;2023-09-08T08:10:17;30.50;39.10
63047;DHT22;62025;39.238;9.126;2023-09-08T08:12:44;30.70;38.60
63047;DHT22;62025;39.238;9.126;2023-09-08T08:15:10;30.90;37.90
63047;DHT22;62025;39.238;9.126;2023-09-08T08:17:37;30.90;37.60
63047;DHT22;62025;39.238;9.126;2023-09-08T08:20:05;31.00;37.40
63047;DHT22;62025;39.238;9.126;2023-09-08T08:22:34;31.20;37.10
63047;DHT22;62025;39.238;9.126;2023-09-08T08:25:04;31.40;36.90
63047;DHT22;62025;39.238;9.126;2023-09-08T08:27:31;31.40;36.40
63047;DHT22;62025;39.238;9.126;2023-09-08T08:29:58;31.60;36.30
63047;DHT22;62025;39.238;9.126;2023-09-08T08:32:27;31.50;36.00
63047;DHT22;62025;39.238;9.126;2023-09-08T08:34:54;31.70;35.80
63047;DHT22;62025;39.238;9.126;2023-09-08T08:37:20;31.70;35.90
63047;DHT22;62025;39.238;9.126;2023-09-08T08:39:45;31.90;35.90
63047;DHT22;62025;39.238;9.126;2023-09-08T08:42:12;32.20;35.30
63047;DHT22;62025;39.238;9.126;2023-09-08T08:44:39;32.30;35.00
63047;DHT22;62025;39.238;9.126;2023-09-08T08:47:10;32.40;34.70
63047;DHT22;62025;39.238;9.126;2023-09-08T08:49:37;32.40;34.50
63047;DHT22;62025;39.238;9.126;2023-09-08T08:52:05;32.40;34.40
63047;DHT22;62025;39.238;9.126;2023-09-08T08:54:40;32.40;34.20
63047;DHT22;62025;39.238;9.126;2023-09-08T08:57:08;32.40;34.10
63047;DHT22;62025;39.238;9.126;2023-09-08T08:59:34;32.60;33.70
63047;DHT22;62025;39.238;9.126;2023-09-08T09:02:02;32.60;33.40
63047;DHT22;62025;39.238;9.126;2023-09-08T09:04:31;32.60;33.40
63047;DHT22;62025;39.238;9.126;2023-09-08T09:06:57;32.60;33.10
63047;DHT22;62025;39.238;9.126;2023-09-08T09:09:24;32.60;33.00
63047;DHT22;62025;39.238;9.126;2023-09-08T09:11:50;32.60;33.20
63047;DHT22;62025;39.238;9.126;2023-09-08T09:14:17;32.60;33.30
63047;DHT22;62025;39.238;9.126;2023-09-08T09:16:43;32.90;32.40
63047;DHT22;62025;39.238;9.126;2023-09-08T09:19:21;33.00;32.30
63047;DHT22;62025;39.238;9.126;2023-09-08T09:21:58;33.10;32.20
63047;DHT22;62025;39.238;9.126;2023-09-08T09:27:07;33.40;32.30
63047;DHT22;62025;39.238;9.126;2023-09-08T09:29:34;33.20;32.60
63047;DHT22;62025;39.238;9.126;2023-09-08T09:32:10;33.00;32.80
63047;DHT22;62025;39.238;9.126;2023-09-08T09:34:47;32.30;32.90
63047;DHT22;62025;39.238;9.126;2023-09-08T09:37:18;32.80;32.90
63047;DHT22;62025;39.238;9.126;2023-09-08T09:39:51;33.20;32.30
63047;DHT22;62025;39.238;9.126;2023-09-08T09:42:19;33.00;31.80
63047;DHT22;62025;39.238;9.126;2023-09-08T09:44:51;33.00;31.30
63047;DHT22;62025;39.238;9.126;2023-09-08T09:47:17;33.10;31.00
63047;DHT22;62025;39.238;9.126;2023-09-08T09:49:46;33.40;30.80
63047;DHT22;62025;39.238;9.126;2023-09-08T09:52:14;33.50;30.60
63047;DHT22;62025;39.238;9.126;2023-09-08T09:54:46;33.50;30.30
63047;DHT22;62025;39.238;9.126;2023-09-08T09:57:16;33.50;30.50
63047;DHT22;62025;39.238;9.126;2023-09-08T09:59:46;33.70;30.20
63047;DHT22;62025;39.238;9.126;2023-09-08T10:02:17;33.90;30.50
63047;DHT22;62025;39.238;9.126;2023-09-08T10:04:48;33.70;30.50
63047;DHT22;62025;39.238;9.126;2023-09-08T10:07:18;33.90;30.60
63047;DHT22;62025;39.238;9.126;2023-09-08T10:09:44;33.50;31.20
63047;DHT22;62025;39.238;9.126;2023-09-08T10:12:13;33.40;31.30
63047;DHT22;62025;39.238;9.126;2023-09-08T10:14:42;32.90;31.80
63047;DHT22;62025;39.238;9.126;2023-09-08T10:17:15;31.90;33.60
63047;DHT22;62025;39.238;9.126;2023-09-08T10:19:45;32.10;33.30
63047;DHT22;62025;39.238;9.126;2023-09-08T10:22:16;31.90;34.20
63047;DHT22;62025;39.238;9.126;2023-09-08T10:24:46;32.50;33.40
63047;DHT22;62025;39.238;9.126;2023-09-08T10:27:15;32.50;33.40
63047;DHT22;62025;39.238;9.126;2023-09-08T10:29:45;32.20;34.50
63047;DHT22;62025;39.238;9.126;2023-09-08T10:32:11;32.20;34.30
63047;DHT22;62025;39.238;9.126;2023-09-08T10:34:38;32.40;34.60
63047;DHT22;62025;39.238;9.126;2023-09-08T10:37:25;32.60;34.20
63047;DHT22;62025;39.238;9.126;2023-09-08T10:39:53;31.60;35.60
63047;DHT22;62025;39.238;9.126;2023-09-08T10:42:24;31.70;35.00
63047;DHT22;62025;39.238;9.126;2023-09-08T10:47:24;31.70;35.00
63047;DHT22;62025;39.238;9.126;2023-09-08T10:49:51;32.00;34.60
63047;DHT22;62025;39.238;9.126;2023-09-08T10:52:24;32.00;34.80
63047;DHT22;62025;39.238;9.126;2023-09-08T10:54:52;31.90;35.00
63047;DHT22;62025;39.238;9.126;2023-09-08T10:57:23;31.90;34.80
63047;DHT22;62025;39.238;9.126;2023-09-08T10:59:58;31.40;35.40
63047;DHT22;62025;39.238;9.126;2023-09-08T11:02:49;31.20;35.80
63047;DHT22;62025;39.238;9.126;2023-09-08T11:05:16;31.40;35.50
63047;DHT22;62025;39.238;9.126;2023-09-08T11:07:45;31.30;35.70
63047;DHT22;62025;39.238;9.126;2023-09-08T11:10:15;31.30;36.50
63047;DHT22;62025;39.238;9.126;2023-09-08T11:12:41;31.20;37.00
63047;DHT22;62025;39.238;9.126;2023-09-08T11:15:08;31.30;37.00
63047;DHT22;62025;39.238;9.126;2023-09-08T11:17:35;31.00;37.50
63047;DHT22;62025;39.238;9.126;2023-09-08T11:20:05;30.90;37.60
63047;DHT22;62025;39.238;9.126;2023-09-08T11:22:34;30.70;37.40
63047;DHT22;62025;39.238;9.126;2023-09-08T11:25:01;30.50;38.50
63047;DHT22;62025;39.238;9.126;2023-09-08T11:27:30;30.60;39.40
63047;DHT22;62025;39.238;9.126;2023-09-08T11:29:57;30.50;39.70
63047;DHT22;62025;39.238;9.126;2023-09-08T11:32:24;30.40;42.40
63047;DHT22;62025;39.238;9.126;2023-09-08T11:34:50;30.10;46.50
63047;DHT22;62025;39.238;9.126;2023-09-08T11:37:17;29.90;44.30
63047;DHT22;62025;39.238;9.126;2023-09-08T11:39:45;29.90;47.30
63047;DHT22;62025;39.238;9.126;2023-09-08T11:42:15;29.50;50.30
63047;DHT22;62025;39.238;9.126;2023-09-08T11:44:42;29.20;52.10
63047;DHT22;62025;39.238;9.126;2023-09-08T11:47:10;29.20;51.70
63047;DHT22;62025;39.238;9.126;2023-09-08T11:49:36;29.20;52.70
63047;DHT22;62025;39.238;9.126;2023-09-08T11:52:04;29.10;52.90
63047;DHT22;62025;39.238;9.126;2023-09-08T11:54:35;28.90;53.20
63047;DHT22;62025;39.238;9.126;2023-09-08T11:57:02;28.80;53.30
63047;DHT22;62025;39.238;9.126;2023-09-08T11:59:33;28.90;52.30
63047;DHT22;62025;39.238;9.126;2023-09-08T12:02:00;28.90;51.90
63047;DHT22;62025;39.238;9.126;2023-09-08T12:04:26;28.70;51.40
63047;DHT22;62025;39.238;9.126;2023-09-08T12:06:54;28.90;51.10
63047;DHT22;62025;39.238;9.126;2023-09-08T12:09:23;28.80;48.90
63047;DHT22;62025;39.238;9.126;2023-09-08T12:11:50;28.90;49.90
63047;DHT22;62025;39.238;9.126;2023-09-08T12:14:16;28.70;48.30
63047;DHT22;62025;39.238;9.126;2023-09-08T12:16:42;28.70;48.30
63047;DHT22;62025;39.238;9.126;2023-09-08T12:19:31;28.70;47.80
63047;DHT22;62025;39.238;9.126;2023-09-08T12:22:00;28.60;47.00
63047;DHT22;62025;39.238;9.126;2023-09-08T12:27:16;28.90;47.40
63047;DHT22;62025;39.238;9.126;2023-09-08T12:29:59;28.80;47.70
63047;DHT22;62025;39.238;9.126;2023-09-08T12:32:29;28.80;48.70
63047;DHT22;62025;39.238;9.126;2023-09-08T12:34:56;28.90;49.50
63047;DHT22;62025;39.238;9.126;2023-09-08T12:37:24;28.80;50.40
63047;DHT22;62025;39.238;9.126;2023-09-08T12:39:55;28.80;50.30
63047;DHT22;62025;39.238;9.126;2023-09-08T12:42:21;28.60;51.90
63047;DHT22;62025;39.238;9.126;2023-09-08T12:44:51;28.90;50.40
63047;DHT22;62025;39.238;9.126;2023-09-08T12:47:18;28.90;50.80
63047;DHT22;62025;39.238;9.126;2023-09-08T12:49:44;29.00;49.50
63047;DHT22;62025;39.238;9.126;2023-09-08T12:52:10;29.20;48.10
63047;DHT22;62025;39.238;9.126;2023-09-08T12:54:36;29.40;46.00
63047;DHT22;62025;39.238;9.126;2023-09-08T12:57:02;29.40;46.70
63047;DHT22;62025;39.238;9.126;2023-09-08T12:59:28;29.30;47.20
63047;DHT22;62025;39.238;9.126;2023-09-08T13:01:55;29.30;48.40
63047;DHT22;62025;39.238;9.126;2023-09-08T13:04:22;28.80;48.30
63047;DHT22;62025;39.238;9.126;2023-09-08T13:06:48;28.20;52.10
63047;DHT22;62025;39.238;9.126;2023-09-08T13:09:15;28.30;51.10
63047;DHT22;62025;39.238;9.126;2023-09-08T13:11:42;28.30;50.90
63047;DHT22;62025;39.238;9.126;2023-09-08T13:14:08;27.90;54.10
63047;DHT22;62025;39.238;9.126;2023-09-08T13:16:34;28.10;53.00
63047;DHT22;62025;39.238;9.126;2023-09-08T13:19:00;28.20;51.60
63047;DHT22;62025;39.238;9.126;2023-09-08T13:21:26;28.30;51.90
63047;DHT22;62025;39.238;9.126;2023-09-08T13:23:52;28.10;51.20
63047;DHT22;62025;39.238;9.126;2023-09-08T13:26:18;28.30;51.60
63047;DHT22;62025;39.238;9.126;2023-09-08T13:28:44;27.90;52.30
63047;DHT22;62025;39.238;9.126;2023-09-08T13:31:10;28.40;52.30
63047;DHT22;62025;39.238;9.126;2023-09-08T13:33:36;28.20;52.00
63047;DHT22;62025;39.238;9.126;2023-09-08T13:36:02;28.00;52.30
63047;DHT22;62025;39.238;9.126;2023-09-08T13:38:28;28.30;53.20
63047;DHT22;62025;39.238;9.126;2023-09-08T13:40:53;28.00;53.80
63047;DHT22;62025;39.238;9.126;2023-09-08T13:43:19;28.00;53.80
63047;DHT22;62025;39.238;9.126;2023-09-08T13:45:45;28.10;53.20
63047;DHT22;62025;39.238;9.126;2023-09-08T13:48:11;28.10;54.10
63047;DHT22;62025;39.238;9.126;2023-09-08T13:50:40;27.80;53.40
63047;DHT22;62025;39.238;9.126;2023-09-08T13:53:06;28.00;53.90
63047;DHT22;62025;39.238;9.126;2023-09-08T13:55:32;28.00;54.70
63047;DHT22;62025;39.238;9.126;2023-09-08T13:57:58;28.10;56.30
63047;DHT22;62025;39.238;9.126;2023-09-08T14:00:24;28.20;55.90
63047;DHT22;62025;39.238;9.126;2023-09-08T14:02:50;28.30;56.50
63047;DHT22;62025;39.238;9.126;2023-09-08T14:05:16;28.00;57.70
63047;DHT22;62025;39.238;9.126;2023-09-08T14:07:42;27.70;57.60
63047;DHT22;62025;39.238;9.126;2023-09-08T14:10:08;27.70;57.80
63047;DHT22;62025;39.238;9.126;2023-09-08T14:12:35;27.60;59.50
63047;DHT22;62025;39.238;9.126;2023-09-08T14:15:01;27.70;59.30
63047;DHT22;62025;39.238;9.126;2023-09-08T14:17:27;27.60;58.40
63047;DHT22;62025;39.238;9.126;2023-09-08T14:19:52;27.80;58.40
63047;DHT22;62025;39.238;9.126;2023-09-08T14:22:18;27.50;57.40
63047;DHT22;62025;39.238;9.126;2023-09-08T14:24:44;27.60;57.60
63047;DHT22;62025;39.238;9.126;2023-09-08T14:27:10;27.60;58.70
63047;DHT22;62025;39.238;9.126;2023-09-08T14:29:36;27.70;58.90
63047;DHT22;62025;39.238;9.126;2023-09-08T14:32:02;28.10;57.40
63047;DHT22;62025;39.238;9.126;2023-09-08T14:34:28;27.90;57.70
63047;DHT22;62025;39.238;9.126;2023-09-08T14:36:54;27.90;56.50
63047;DHT22;62025;39.238;9.126;2023-09-08T14:39:20;27.70;57.20
63047;DHT22;62025;39.238;9.126;2023-09-08T14:41:47;28.00;56.90
63047;DHT22;62025;39.238;9.126;2023-09-08T14:44:15;27.60;57.70
63047;DHT22;62025;39.238;9.126;2023-09-08T14:46:41;27.50;58.50
63047;DHT22;62025;39.238;9.126;2023-09-08T14:49:07;27.60;59.30
63047;DHT22;62025;39.238;9.126;2023-09-08T14:51:33;27.50;59.40
63047;DHT22;62025;39.238;9.126;2023-09-08T14:53:59;27.50;59.90
63047;DHT22;62025;39.238;9.126;2023-09-08T14:56:25;27.60;60.00
63047;DHT22;62025;39.238;9.126;2023-09-08T14:58:51;27.90;59.50
63047;DHT22;62025;39.238;9.126;2023-09-08T15:01:16;27.90;58.60
63047;DHT22;62025;39.238;9.126;2023-09-08T15:03:43;27.80;59.00
63047;DHT22;62025;39.238;9.126;2023-09-08T15:06:09;27.70;57.50
63047;DHT22;62025;39.238;9.126;2023-09-08T15:08:35;27.50;59.30
63047;DHT22;62025;39.238;9.126;2023-09-08T15:11:01;27.40;60.00
63047;DHT22;62025;39.238;9.126;2023-09-08T15:13:26;27.60;59.50
63047;DHT22;62025;39.238;9.126;2023-09-08T15:15:52;27.70;58.60
63047;DHT22;62025;39.238;9.126;2023-09-08T15:18:18;27.50;58.90
63047;DHT22;62025;39.238;9.126;2023-09-08T15:20:52;27.40;59.50
63047;DHT22;62025;39.238;9.126;2023-09-08T15:23:19;27.30;60.80
63047;DHT22;62025;39.238;9.126;2023-09-08T15:25:56;27.40;60.60
63047;DHT22;62025;39.238;9.126;2023-09-08T15:28:23;27.50;60.40
63047;DHT22;62025;39.238;9.126;2023-09-08T15:30:50;27.40;60.90
63047;DHT22;62025;39.238;9.126;2023-09-08T15:33:18;27.60;60.80
63047;DHT22;62025;39.238;9.126;2023-09-08T15:35:46;27.40;61.40
63047;DHT22;62025;39.238;9.126;2023-09-08T15:38:12;27.60;61.50
63047;DHT22;62025;39.238;9.126;2023-09-08T15:43:39;27.30;62.80